Time;durP1;ratioP1;P1;durP2;ratioP2;P2;SDS_P1;SDS_P2;PMS_P1;PMS_P2;Temp;Humidity;BMP_temperature;BMP_pressure;BME280_temperature;BME280_humidity;BME280_pressure;Samples;Min_cycle;Max_cycle;Signal;HPM_P1;HPM_P2
2021/03/28 00:01:06;;;;;;;8.40;2.20;;;5.60;99.90;;;3.95;69.17;102400.78;4968727;28;102511;-40
2021/03/28 00:03:53;;;;;;;6.55;2.25;;;5.60;99.90;;;3.93;69.41;102400.94;4968990;28;102814;-40
2021/03/28 00:06:43;;;;;;;8.02;2.45;;;5.60;99.90;;;3.95;69.46;102403.50;4985357;28;104392;-40
2021/03/28 00:09:27;;;;;;;9.60;2.38;;;5.60;99.90;;;3.95;68.97;102403.50;5001690;28;103578;-40
2021/03/28 00:12:14;;;;;;;7.82;2.20;;;5.50;99.90;;;3.94;69.21;102404.47;4985286;28;106031;-40
2021/03/28 00:15:05;;;;;;;5.55;2.20;;;5.60;99.90;;;3.88;69.07;102409.41;4984095;28;102565;-40
2021/03/28 00:17:49;;;;;;;7.63;2.40;;;5.50;99.90;;;3.81;70.22;102405.53;5001385;28;103302;-40
2021/03/28 00:20:18;;;;;;;5.38;1.95;;;5.50;99.90;;;3.89;69.43;102405.72;4984399;28;103400;-40
2021/03/28 00:22:57;;;;;;;6.10;2.10;;;5.50;99.90;;;3.87;69.47;102401.47;5001352;28;103309;-40
2021/03/28 00:25:53;;;;;;;7.20;2.65;;;5.50;99.90;;;3.84;68.91;102397.16;4983969;28;103577;-40
2021/03/28 00:28:33;;;;;;;5.07;1.80;;;5.50;99.90;;;3.83;69.68;102402.69;5001146;28;105316;-40
2021/03/28 00:31:22;;;;;;;8.02;2.45;;;5.50;99.90;;;3.78;69.88;102405.78;5033626;22;103466;-40
2021/03/28 00:34:09;;;;;;;;;;;5.40;99.90;;;3.82;70.15;102396.44;4962722;28;102923;-40
2021/03/28 00:36:52;;;;;;;11.30;2.63;;;5.40;99.90;;;3.82;71.27;102399.13;4960163;28;103315;-40
2021/03/28 00:39:39;;;;;;;8.18;2.08;;;5.50;99.90;;;3.78;71.04;102386.88;4961554;28;105846;-40
2021/03/28 00:42:22;;;;;;;5.25;2.50;;;5.40;99.90;;;3.79;70.54;102390.44;4945427;28;103459;-40
2021/03/28 00:45:00;;;;;;;8.52;2.17;;;5.40;99.90;;;3.82;71.63;102396.44;4945070;28;102515;-40
2021/03/28 00:47:34;;;;;;;10.18;3.35;;;5.40;99.90;;;3.91;70.71;102388.53;4945123;28;104447;-40
2021/03/28 00:50:23;;;;;;;5.88;2.03;;;5.50;99.90;;;3.91;70.99;102381.31;4945445;28;102303;-40
2021/03/28 00:52:57;;;;;;;5.40;1.70;;;5.50;99.90;;;3.92;70.13;102387.56;4945033;28;102590;-40
2021/03/28 00:55:33;;;;;;;10.20;2.60;;;5.50;99.90;;;3.95;71.22;102392.69;4962265;28;102198;-40
2021/03/28 00:58:15;;;;;;;5.47;2.30;;;5.50;99.90;;;4.02;71.00;102389.34;4929035;28;103132;-40
2021/03/28 01:01:12;;;;;;;5.22;3.05;;;5.60;99.90;;;4.07;69.95;102383.56;4945538;28;102608;-40
2021/03/28 01:04:09;;;;;;;9.13;3.83;;;5.70;99.90;;;4.07;70.44;102378.16;4927949;28;102735;-40
2021/03/28 01:06:44;;;;;;;10.25;5.40;;;5.70;99.90;;;4.09;70.68;102384.28;4912659;28;104576;-40
2021/03/28 01:09:38;;;;;;;9.32;4.78;;;5.70;99.90;;;4.15;70.58;102378.34;4944959;28;102601;-40
2021/03/28 01:12:26;;;;;;;14.32;4.90;;;5.70;99.90;;;4.22;70.05;102377.81;4912697;28;104474;-40
2021/03/28 01:15:19;;;;;;;13.10;5.43;;;5.80;99.90;;;4.23;69.19;102382.22;4927680;28;104688;-40
2021/03/28 01:18:00;;;;;;;10.75;5.65;;;5.80;99.90;;;4.26;69.27;102363.06;4961493;28;104164;-40
2021/03/28 01:20:49;;;;;;;11.00;5.63;;;5.80;99.90;;;4.29;70.15;102373.63;4944474;28;103575;-40
2021/03/28 01:23:33;;;;;;;10.53;5.10;;;5.80;99.90;;;4.32;69.58;102367.94;4943992;28;105872;-39
2021/03/28 01:26:29;;;;;;;10.52;4.55;;;5.90;99.90;;;4.35;69.18;102364.97;4943906;28;103635;-40
2021/03/28 01:29:11;;;;;;;10.73;4.95;;;5.90;99.90;;;4.36;69.33;102363.97;4912299;28;104482;-40
2021/03/28 01:31:53;;;;;;;8.43;3.63;;;5.90;99.90;;;4.35;70.49;102355.97;4928020;28;103502;-40
2021/03/28 01:34:45;;;;;;;12.13;4.28;;;5.90;99.90;;;4.39;70.29;102346.66;4896613;28;105238;-40
2021/03/28 01:37:30;;;;;;;7.90;3.47;;;5.90;99.90;;;4.38;70.66;102342.22;4928433;28;103543;-40
2021/03/28 01:40:17;;;;;;;5.60;2.70;;;6.00;99.90;;;4.42;70.93;102344.50;4944354;28;104452;-40
2021/03/28 01:42:52;;;;;;;6.20;2.60;;;6.00;99.90;;;4.43;70.37;102345.38;4928170;28;103832;-40
2021/03/28 01:45:39;;;;;;;5.50;2.40;;;6.00;99.90;;;4.47;69.01;102346.81;4927472;28;104404;-40
2021/03/28 01:48:35;;;;;;;8.10;2.47;;;6.00;99.90;;;4.47;70.47;102341.41;4913459;28;102992;-40
2021/03/28 01:51:22;;;;;;;5.72;2.00;;;6.10;99.90;;;4.47;70.38;102333.31;4911796;28;103557;-40
2021/03/28 01:54:01;;;;;;;5.32;2.20;;;6.00;99.90;;;4.50;70.71;102337.56;4927426;28;104902;-40
2021/03/28 01:56:41;;;;;;;9.43;2.20;;;6.00;99.90;;;4.56;69.42;102335.19;4943787;28;105470;-40
2021/03/28 01:59:27;;;;;;;7.45;2.17;;;6.10;99.90;;;4.62;69.82;102341.91;4913427;28;102893;-40
2021/03/28 02:02:19;;;;;;;4.20;2.05;;;6.10;99.90;;;4.56;69.61;102335.19;4913016;28;102385;-40
2021/03/28 02:05:06;;;;;;;10.10;2.50;;;6.10;99.90;;;4.62;70.27;102336.50;4912667;28;103492;-40
2021/03/28 02:07:53;;;;;;;8.35;1.98;;;6.20;99.90;;;4.63;70.41;102338.22;4895986;28;102605;-40
2021/03/28 02:10:41;;;;;;;6.65;2.03;;;6.20;99.90;;;4.55;69.80;102335.34;4911603;28;103297;-40
2021/03/28 02:13:35;;;;;;;8.90;2.25;;;6.20;99.90;;;4.52;70.19;102341.03;4943718;28;106137;-40
2021/03/28 02:16:22;;;;;;;11.63;2.05;;;6.10;99.90;;;4.46;71.03;102345.13;4897204;28;102697;-39
2021/03/28 02:19:15;;;;;;;5.22;1.75;;;6.10;99.90;;;4.40;70.40;102332.16;4914251;28;104837;-39
2021/03/28 02:22:05;;;;;;;6.03;2.13;;;6.00;99.90;;;4.36;70.22;102339.66;4928894;28;102485;-40
2021/03/28 02:24:58;;;;;;;5.07;2.03;;;6.00;99.90;;;4.32;71.29;102335.50;4960248;28;103509;-40
2021/03/28 02:27:45;;;;;;;8.20;1.83;;;5.90;99.90;;;4.26;71.04;102336.06;4943916;28;103770;-40
2021/03/28 02:30:30;;;;;;;7.05;2.20;;;5.90;99.90;;;4.27;71.79;102340.47;4912859;28;104865;-40
2021/03/28 02:33:09;;;;;;;6.47;2.13;;;5.80;99.90;;;4.20;72.25;102334.72;4927330;28;103519;-40
2021/03/28 02:35:56;;;;;;;6.75;2.25;;;5.80;99.90;;;4.17;72.88;102343.94;4926897;28;104632;-40
2021/03/28 02:38:44;;;;;;;7.90;2.35;;;5.80;99.90;;;4.21;73.09;102339.16;4928238;28;103080;-40
2021/03/28 02:41:38;;;;;;;6.07;2.13;;;5.80;99.90;;;4.27;72.82;102340.47;4930773;28;102490;-40
2021/03/28 02:44:28;;;;;;;7.00;2.10;;;5.90;99.90;;;4.34;72.28;102338.94;4917153;28;103714;-40
2021/03/28 02:47:16;;;;;;;5.82;2.35;;;5.90;99.90;;;4.34;71.88;102341.63;4930802;28;104644;-40
2021/03/28 02:50:12;;;;;;;8.50;2.20;;;5.90;99.90;;;4.33;72.24;102339.91;4930632;28;102792;-41
2021/03/28 02:52:49;;;;;;;4.88;1.60;;;5.90;99.90;;;4.34;72.60;102347.03;4930835;28;102337;-40
2021/03/28 02:55:46;;;;;;;6.93;2.08;;;5.90;99.90;;;4.31;72.42;102342.75;4930015;28;104832;-39
2021/03/28 02:58:20;;;;;;;5.13;2.20;;;5.90;99.90;;;4.27;72.24;102343.16;4914431;28;102336;-40
2021/03/28 03:01:18;;;;;;;4.82;1.95;;;5.90;99.90;;;4.28;72.58;102344.88;4930510;28;103645;-40
2021/03/28 03:04:06;;;;;;;9.77;2.15;;;5.90;99.90;;;4.27;72.70;102349.41;4945841;28;105713;-40
2021/03/28 03:07:01;;;;;;;6.80;2.13;;;5.80;99.90;;;4.29;72.53;102342.03;4946560;28;103556;-40
2021/03/28 03:09:49;;;;;;;5.00;2.00;;;5.90;99.90;;;4.22;72.76;102330.06;4933058;28;105904;-40
2021/03/28 03:12:34;;;;;;;6.90;1.70;;;5.80;99.90;;;4.13;72.71;102326.28;4930592;28;102451;-40
2021/03/28 03:15:27;;;;;;;6.93;1.77;;;5.80;99.90;;;4.10;72.96;102331.97;4929658;28;103458;-40
2021/03/28 03:18:05;;;;;;;6.82;2.00;;;5.70;99.90;;;4.07;73.22;102329.53;4930645;28;104771;-40
2021/03/28 03:20:43;;;;;;;3.30;1.45;;;5.70;99.90;;;4.03;73.49;102326.22;4930467;28;102682;-40
2021/03/28 03:23:42;;;;;;;3.65;1.23;;;5.70;99.90;;;4.02;73.17;102329.91;4946507;28;103676;-40
2021/03/28 03:26:39;;;;;;;3.55;1.70;;;5.60;99.90;;;4.02;73.37;102324.53;4933221;28;103916;-40
2021/03/28 03:29:27;;;;;;;7.05;1.63;;;5.70;99.90;;;4.03;73.54;102338.91;4945902;28;102496;-40
2021/03/28 03:32:29;;;;;;;8.23;2.10;;;5.60;99.90;;;4.02;73.43;102331.78;4945962;28;104453;-40
2021/03/28 03:35:26;;;;;;;3.70;1.20;;;5.60;99.90;;;4.07;73.61;102332.22;4929476;28;102619;-40
2021/03/28 03:38:13;;;;;;;6.65;1.52;;;5.70;99.90;;;4.02;73.48;102334.47;4903973;28;104381;-40
2021/03/28 03:41:06;;;;;;;4.47;1.38;;;5.60;99.90;;;4.01;73.80;102332.78;4913869;28;102682;-40
2021/03/28 03:43:37;;;;;;;5.95;1.70;;;5.60;99.90;;;4.02;73.85;102332.63;4900518;28;102450;-40
2021/03/28 03:46:14;;;;;;;8.43;1.55;;;5.60;99.90;;;4.03;73.27;102334.34;4929886;28;103545;-40
2021/03/28 03:49:09;;;;;;;8.88;1.48;;;5.70;99.90;;;4.00;73.43;102333.75;4929673;28;105529;-40
2021/03/28 03:51:57;;;;;;;4.35;1.42;;;5.60;99.90;;;4.01;74.13;102327.38;4914568;28;102669;-40
2021/03/28 03:54:45;;;;;;;5.47;1.40;;;5.60;99.90;;;4.05;73.63;102326.13;4929097;28;103530;-40
2021/03/28 03:57:24;;;;;;;4.97;1.20;;;5.70;99.90;;;4.08;73.18;102324.97;4929676;28;102548;-40
2021/03/28 04:00:15;;;;;;;7.15;1.80;;;5.70;99.90;;;4.06;73.23;102325.13;4945907;28;103318;-40
2021/03/28 04:02:53;;;;;;;6.30;1.73;;;5.70;99.90;;;4.05;73.50;102326.13;4947155;28;104419;-40
2021/03/28 04:05:37;;;;;;;11.50;2.03;;;5.70;99.90;;;4.05;74.16;102328.81;4913595;28;102513;-39
2021/03/28 04:08:24;;;;;;;8.52;2.17;;;5.60;99.90;;;4.06;73.46;102329.66;4913579;28;102408;-40
2021/03/28 04:11:02;;;;;;;6.50;1.58;;;5.60;99.90;;;4.03;73.97;102328.94;4946276;28;102428;-40
2021/03/28 04:13:59;;;;;;;7.47;2.05;;;5.60;99.90;;;4.03;73.03;102334.34;4928869;28;102714;-40
2021/03/28 04:16:45;;;;;;;5.82;1.70;;;5.60;99.90;;;3.99;73.91;102332.06;4929128;28;102582;-40
2021/03/28 04:19:33;;;;;;;8.40;1.92;;;5.60;99.90;;;3.92;74.17;102334.41;4913239;28;103760;-40
2021/03/28 04:22:21;;;;;;;7.63;2.08;;;5.60;99.90;;;3.96;74.71;102335.84;4914425;28;102369;-40
2021/03/28 04:25:06;;;;;;;7.68;2.00;;;5.60;99.90;;;3.92;74.58;102333.53;4912664;28;105366;-40
2021/03/28 04:27:42;;;;;;;5.68;1.40;;;5.60;99.90;;;3.87;74.23;102332.09;4945157;28;102626;-40
2021/03/28 04:30:39;;;;;;;6.50;1.85;;;5.50;99.90;;;3.88;74.64;102331.09;4929042;28;102564;-40
2021/03/28 04:33:17;;;;;;;5.50;1.60;;;5.50;99.90;;;3.89;74.86;102343.63;4913157;28;103850;-39
2021/03/28 04:36:04;;;;;;;5.20;1.73;;;5.50;99.90;;;3.91;74.67;102342.63;4945335;28;103392;-40
2021/03/28 04:39:01;;;;;;;5.78;1.92;;;5.50;99.90;;;4.01;75.13;102344.41;4945092;28;104641;-40
2021/03/28 04:41:53;;;;;;;7.07;1.77;;;5.60;99.90;;;4.05;75.08;102355.81;4928970;28;102785;-40
2021/03/28 04:44:53;;;;;;;6.68;1.85;;;5.60;99.90;;;4.15;74.23;102343.22;4913784;28;104423;-40
2021/03/28 04:47:49;;;;;;;5.05;1.88;;;5.70;99.90;;;4.13;74.83;102345.19;4928902;28;102600;-40
2021/03/28 04:50:45;;;;;;;6.43;1.73;;;5.70;99.90;;;4.12;75.64;102335.38;4944932;28;102450;-40
2021/03/28 04:53:41;;;;;;;5.80;1.92;;;5.70;99.90;;;4.15;74.69;102343.22;4944748;28;102699;-40
2021/03/28 04:56:19;;;;;;;4.88;1.38;;;5.70;99.90;;;4.24;74.60;102341.56;4931712;28;103513;-40
2021/03/28 04:59:16;;;;;;;5.35;1.80;;;5.80;99.90;;;4.33;73.98;102356.13;4944274;28;102745;-40
2021/03/28 05:02:02;;;;;;;5.45;1.75;;;5.80;99.90;;;4.37;73.61;102351.31;4927638;28;102420;-40
2021/03/28 05:04:40;;;;;;;7.20;2.00;;;5.90;99.90;;;4.35;74.54;102351.44;4944280;28;102305;-40
2021/03/28 05:07:28;;;;;;;7.47;2.17;;;5.90;99.90;;;4.37;74.43;102348.59;4928863;28;103396;-40
2021/03/28 05:10:16;;;;;;;5.65;1.77;;;5.90;99.90;;;4.42;73.43;102351.78;4912283;28;103055;-40
2021/03/28 05:13:13;;;;;;;7.10;2.00;;;6.00;99.90;;;4.36;73.56;102347.75;4912330;28;103502;-40
2021/03/28 05:16:09;;;;;;;7.65;1.88;;;5.90;99.90;;;4.36;74.00;102349.59;4944733;28;102774;-40
2021/03/28 05:19:09;;;;;;;5.15;2.22;;;5.90;99.90;;;4.43;72.87;102354.34;4944601;28;104438;-40
2021/03/28 05:21:58;;;;;;;6.13;1.67;;;6.00;99.90;;;4.45;73.10;102349.66;4944657;28;102898;-40
2021/03/28 05:24:46;;;;;;;6.53;1.73;;;6.00;99.90;;;4.42;74.09;102357.19;4927922;28;103312;-40
2021/03/28 05:27:23;;;;;;;7.97;1.70;;;6.00;99.90;;;4.47;73.38;102354.94;4928422;28;105379;-40
2021/03/28 05:30:11;;;;;;;9.18;1.67;;;6.00;99.90;;;4.55;72.89;102356.97;4928167;28;103403;-40
2021/03/28 05:33:15;;;;;;;5.75;1.50;;;6.10;99.90;;;4.55;73.48;102346.16;4944643;28;102669;-40
2021/03/28 05:35:54;;;;;;;8.65;1.60;;;6.10;99.90;;;4.55;73.05;102347.00;4927757;28;103391;-40
2021/03/28 05:38:34;;;;;;;9.82;2.53;;;6.10;99.90;;;4.60;72.71;102338.50;4927897;28;103123;-40
2021/03/28 05:41:30;;;;;;;6.85;2.20;;;6.10;99.90;;;4.71;72.25;102342.94;4928063;28;103417;-40
2021/03/28 05:44:26;;;;;;;6.63;1.50;;;6.20;99.90;;;4.68;72.87;102340.53;4927464;28;103602;-39
2021/03/28 05:47:13;;;;;;;4.63;1.40;;;6.20;99.90;;;4.68;73.41;102335.09;4944374;28;104554;-40
2021/03/28 05:50:01;;;;;;;5.32;1.55;;;6.20;99.90;;;4.75;73.12;102320.03;4913484;28;102886;-40
2021/03/28 05:53:06;;;;;;;8.68;1.80;;;6.30;99.90;;;4.81;72.05;102324.06;4961955;28;102522;-40
2021/03/28 05:55:53;;;;;;;7.32;1.75;;;6.30;99.90;;;4.84;72.07;102323.78;4947927;28;102469;-40
2021/03/28 05:58:42;;;;;;;3.83;1.60;;;6.40;99.90;;;4.85;72.81;102325.50;4927771;28;103426;-40
2021/03/28 06:01:28;;;;;;;6.45;1.77;;;6.40;99.90;;;4.89;72.76;102327.75;4927706;28;104082;-40
2021/03/28 06:04:44;;;;;;;4.75;1.65;;;6.40;99.90;;;4.96;72.58;102336.19;4929674;28;105236;-40
2021/03/28 06:07:33;;;;;;;4.70;1.50;;;6.50;99.90;;;5.01;72.56;102339.31;4932777;28;102324;-40
2021/03/28 06:10:38;;;;;;;5.50;1.67;;;6.50;99.90;;;5.04;72.29;102344.47;4927830;28;104259;-39
2021/03/28 06:13:37;;;;;;;4.18;1.42;;;6.50;99.90;;;5.07;71.73;102335.22;4931462;28;102654;-40
2021/03/28 06:16:10;;;;;;;4.40;1.70;;;6.60;99.90;;;5.09;72.34;102349.47;4927584;28;104627;-40
2021/03/28 06:19:04;;;;;;;5.10;1.55;;;6.60;99.90;;;5.10;72.20;102344.91;4943640;28;102547;-40
2021/03/28 06:21:51;;;;;;;4.57;1.42;;;6.60;99.90;;;5.12;71.90;102342.94;4927653;28;102555;-40
2021/03/28 06:24:42;;;;;;;5.68;1.80;;;6.60;99.90;;;5.15;71.98;102348.06;4960592;28;102602;-40
2021/03/28 06:27:52;;;;;;;5.97;1.65;;;6.70;99.90;;;5.15;72.05;102353.47;4944039;28;105148;-40
2021/03/28 06:33:33;;;;;;;4.47;1.73;;;6.70;99.90;;;5.23;72.49;102347.38;4968583;28;103484;-39
2021/03/28 06:36:29;;;;;;;7.03;1.52;;;6.70;99.90;;;5.26;72.49;102337.09;4946958;28;104996;-39
2021/03/28 06:39:26;;;;;;;7.50;1.67;;;6.80;99.90;;;5.32;72.10;102339.25;4980023;28;104718;-39
2021/03/28 06:42:14;;;;;;;6.47;1.52;;;6.80;99.90;;;5.45;72.44;102341.69;4963001;28;103575;-39
2021/03/28 06:45:01;;;;;;;3.67;1.25;;;6.90;99.90;;;5.51;72.47;102339.41;4962155;28;102540;-39
2021/03/28 06:47:57;;;;;;;5.47;1.40;;;7.00;99.90;;;5.65;71.82;102333.56;4979285;28;102514;-39
2021/03/28 06:50:44;;;;;;;3.33;1.27;;;7.10;99.90;;;5.70;71.76;102335.84;4962535;28;103589;-39
2021/03/28 06:53:30;;;;;;;5.13;1.38;;;7.10;99.90;;;5.77;71.03;102339.69;4979680;28;102597;-39
2021/03/28 06:56:17;;;;;;;5.07;1.40;;;7.20;99.90;;;5.87;70.18;102340.56;4963231;28;105367;-40
2021/03/28 06:59:13;;;;;;;5.78;1.30;;;7.30;99.90;;;5.94;71.06;102337.25;4963006;28;103552;-39
2021/03/28 07:02:00;;;;;;;4.50;1.33;;;7.40;99.90;;;5.94;70.89;102327.25;4962834;28;102430;-39
2021/03/28 07:04:47;;;;;;;3.95;1.10;;;7.40;99.90;;;6.04;70.59;102335.41;4978859;28;103615;-39
2021/03/28 07:07:45;;;;;;;3.35;1.20;;;7.50;99.90;;;6.11;70.68;102333.84;4978803;28;104356;-39
2021/03/28 07:10:39;;;;;;;3.72;1.13;;;7.50;99.90;;;6.19;70.28;102341.22;4977771;28;103069;-39
2021/03/28 07:13:26;;;;;;;2.92;1.00;;;7.60;99.90;;;6.27;71.02;102344.06;4962780;28;103418;-39
2021/03/28 07:16:23;;;;;;;6.50;1.30;;;7.70;99.90;;;6.32;69.66;102338.19;4980547;28;102541;-39
2021/03/28 07:19:10;;;;;;;3.70;1.20;;;7.80;99.90;;;6.38;70.28;102348.47;4974808;28;102458;-40
2021/03/28 07:21:58;;;;;;;5.78;1.55;;;7.80;99.90;;;6.43;69.71;102339.88;4962834;28;102585;-39
2021/03/28 07:24:45;;;;;;;5.03;1.88;;;7.80;99.90;;;6.48;69.77;102343.88;4946495;28;103403;-39
2021/03/28 07:27:41;;;;;;;4.85;1.77;;;7.90;99.90;;;6.58;69.87;102345.66;4983401;28;102878;-39
2021/03/28 07:30:43;;;;;;;5.38;1.30;;;7.90;99.90;;;6.64;70.05;102339.69;4966027;28;102371;-39
2021/03/28 07:33:29;;;;;;;5.30;1.40;;;8.00;99.90;;;6.74;69.33;102356.75;4983318;28;102575;-40
2021/03/28 07:36:16;;;;;;;4.57;1.08;;;8.10;99.90;;;6.82;69.31;102350.59;4981669;28;104174;-39
2021/03/28 07:39:09;;;;;;;5.57;1.40;;;8.20;99.90;;;6.92;68.47;102347.81;4965997;28;102673;-39
2021/03/28 07:42:09;;;;;;;5.95;1.48;;;8.30;99.90;;;7.08;68.58;102341.75;4983515;28;103400;-39
2021/03/28 07:44:37;;;;;;;3.80;1.50;;;8.40;99.90;;;7.18;68.58;102347.94;4949088;28;102755;-39
2021/03/28 07:47:24;;;;;;;6.78;1.67;;;8.50;99.90;;;7.33;67.57;102344.72;4982316;28;102387;-39
2021/03/28 07:50:16;;;;;;;4.90;1.42;;;8.60;99.90;;;7.46;67.98;102345.19;4965934;28;102312;-40
2021/03/28 07:52:55;;;;;;;3.83;1.38;;;8.70;99.90;;;7.58;66.72;102342.25;4965595;28;103316;-40
2021/03/28 07:55:38;;;;;;;7.80;1.33;;;8.90;99.90;;;7.70;66.96;102348.31;4982464;28;102206;-40
2021/03/28 07:58:24;;;;;;;4.88;1.30;;;9.00;99.90;;;7.77;66.42;102352.94;4965256;28;102532;-40
2021/03/28 08:01:19;;;;;;;7.00;1.77;;;9.10;99.90;;;7.92;66.52;102352.38;4982765;28;104784;-39
2021/03/28 08:04:06;;;;;;;4.00;1.50;;;9.20;99.90;;;8.06;66.25;102351.81;4982731;28;102280;-40
2021/03/28 08:06:53;;;;;;;6.05;1.23;;;9.30;99.90;;;8.19;65.68;102355.97;4982103;28;103014;-39
2021/03/28 08:09:44;;;;;;;6.15;1.40;;;9.40;99.90;;;8.27;64.94;102356.03;4965447;28;104462;-40
2021/03/28 08:12:40;;;;;;;9.05;1.63;;;9.50;99.90;;;8.39;64.17;102363.94;4965121;28;103696;-39
2021/03/28 08:15:27;;;;;;;3.08;1.50;;;9.70;99.90;;;8.53;65.32;102367.97;4982157;28;104340;-40
2021/03/28 08:18:25;;;;;;;7.78;1.88;;;9.70;99.90;;;8.59;64.06;102367.31;4982484;28;104999;-40
2021/03/28 08:21:13;;;;;;;5.72;1.95;;;9.80;99.90;;;8.68;65.23;102370.94;4964849;28;105486;-40
2021/03/28 08:24:14;;;;;;;6.97;1.58;;;9.90;99.90;;;8.75;65.40;102367.41;4964778;28;102647;-39
2021/03/28 08:27:09;;;;;;;5.72;1.40;;;10.00;99.90;;;8.90;64.70;102364.94;4981495;28;103712;-39
2021/03/28 08:29:59;;;;;;;5.00;1.40;;;10.10;99.90;;;9.27;64.46;102357.38;4981934;28;104460;-39
2021/03/28 08:32:52;;;;;;;5.18;1.50;;;10.40;99.90;;;9.62;63.25;102363.59;4982249;28;103290;-39
2021/03/28 08:35:48;;;;;;;4.47;1.50;;;10.60;99.90;;;9.96;62.73;102360.88;4964275;28;103532;-40
2021/03/28 08:38:35;;;;;;;9.05;1.67;;;10.90;99.90;;;10.26;62.95;102362.03;4982905;28;103357;-39
2021/03/28 08:41:31;;;;;;;4.18;1.58;;;11.20;99.90;;;10.48;61.00;102365.94;4982745;28;102484;-39
2021/03/28 08:44:27;;;;;;;6.07;1.63;;;11.40;99.90;;;10.63;60.06;102363.34;4963792;28;103511;-40
2021/03/28 08:47:23;;;;;;;6.07;1.60;;;11.70;99.90;;;10.72;58.75;102360.56;4964862;28;103536;-40
2021/03/28 08:50:07;;;;;;;4.80;1.75;;;11.80;99.90;;;10.78;58.20;102368.09;4982178;28;103384;-39
2021/03/28 08:53:01;;;;;;;3.90;1.33;;;12.00;99.90;;;10.94;59.20;102359.81;4964615;28;103500;-39
2021/03/28 08:55:57;;;;;;;5.25;1.40;;;12.10;99.90;;;11.12;58.85;102366.03;4947665;28;106382;-39
2021/03/28 08:58:37;;;;;;;4.85;1.60;;;12.20;99.90;;;11.23;57.73;102360.19;4964274;28;102604;-39
2021/03/28 09:01:15;;;;;;;7.65;1.80;;;12.40;99.90;;;11.37;57.57;102353.94;4981175;28;104195;-39
2021/03/28 09:04:21;;;;;;;8.50;1.80;;;12.50;99.90;;;11.34;58.09;102357.03;4947693;28;103096;-39
2021/03/28 09:06:59;;;;;;;8.15;1.60;;;12.50;99.90;;;11.14;58.46;102367.56;4966869;28;102314;-39
2021/03/28 09:09:51;;;;;;;5.67;1.30;;;12.50;99.90;;;11.13;58.20;102362.28;4964429;28;104117;-39
2021/03/28 09:12:35;;;;;;;4.75;1.95;;;12.50;99.90;;;11.12;56.94;102369.63;4980837;28;102289;-39
2021/03/28 09:15:24;;;;;;;4.50;1.25;;;12.50;99.90;;;11.08;57.74;102376.50;4981112;28;102269;-39
2021/03/28 09:18:02;;;;;;;5.50;1.10;;;12.40;99.90;;;11.01;55.22;102362.69;4947884;28;104307;-40
2021/03/28 09:20:49;;;;;;;5.57;1.13;;;12.40;99.90;;;11.10;54.74;102371.69;4980571;28;104396;-39
2021/03/28 09:23:32;;;;;;;5.93;1.95;;;12.30;99.90;;;11.26;56.35;102373.50;4963516;28;102335;-39
2021/03/28 09:26:13;;;;;;;3.13;1.02;;;12.50;99.90;;;11.33;54.23;102359.97;4981605;28;102749;-39
2021/03/28 09:28:51;;;;;;;5.75;1.33;;;12.60;99.90;;;11.40;52.04;102360.94;4982025;28;102354;-39
2021/03/28 09:31:35;;;;;;;6.13;1.33;;;12.70;99.90;;;11.65;52.84;102371.72;4980362;28;102582;-39
2021/03/28 09:34:22;;;;;;;4.88;1.15;;;12.80;99.90;;;11.77;53.14;102363.94;4963398;28;103412;-39
2021/03/28 09:37:13;;;;;;;4.80;1.15;;;13.00;99.90;;;11.74;50.78;102356.09;4964115;28;103569;-39
2021/03/28 09:39:53;;;;;;;3.70;0.95;;;13.00;99.90;;;11.71;49.07;102357.31;4963731;28;103423;-39
2021/03/28 09:42:50;;;;;;;4.00;1.13;;;13.00;99.80;;;11.87;50.30;102353.59;4963375;28;102277;-39
2021/03/28 09:45:46;;;;;;;4.38;1.20;;;13.10;99.90;;;11.99;50.90;102345.78;4980715;28;103381;-39
2021/03/28 09:48:42;;;;;;;5.95;1.00;;;13.20;99.90;;;12.05;48.04;102347.81;4979451;28;102530;-39
2021/03/28 09:51:39;;;;;;;6.65;1.20;;;13.30;99.00;;;12.17;51.20;102345.47;4980970;28;103409;-40
2021/03/28 09:54:27;;;;;;;3.75;1.27;;;13.40;99.90;;;12.25;46.26;102339.09;4962873;28;102495;-39
2021/03/28 09:57:15;;;;;;;4.15;1.17;;;13.50;97.00;;;12.17;46.34;102331.81;4981686;28;102483;-39
2021/03/28 10:00:02;;;;;;;4.43;1.08;;;13.50;96.90;;;12.29;48.86;102332.19;4980833;28;102728;-39
2021/03/28 10:02:39;;;;;;;4.53;1.10;;;13.50;98.30;;;12.54;49.05;102331.09;4963564;28;102427;-40
2021/03/28 10:05:28;;;;;;;4.72;1.08;;;13.70;99.30;;;12.70;48.82;102327.31;4980301;28;102497;-39
2021/03/28 10:08:18;;;;;;;9.27;1.70;;;13.80;99.20;;;12.82;46.30;102341.38;4981413;28;104548;-39
2021/03/28 10:11:07;;;;;;;3.88;1.42;;;14.00;96.30;;;12.84;46.49;102331.06;4980438;28;103004;-39
2021/03/28 10:13:58;;;;;;;4.78;1.25;;;14.00;96.40;;;12.88;47.76;102340.59;4962692;28;105785;-39
2021/03/28 10:16:47;;;;;;;3.47;1.00;;;14.10;97.80;;;12.85;46.08;102335.50;4979812;28;102686;-39
2021/03/28 10:19:37;;;;;;;5.73;1.17;;;14.10;95.10;;;13.08;44.98;102336.22;4963682;28;103042;-39
2021/03/28 10:22:24;;;;;;;4.88;1.65;;;14.20;93.80;;;13.22;45.00;102337.22;4980694;28;104464;-40
2021/03/28 10:25:04;;;;;;;6.00;1.15;;;14.40;94.60;;;13.26;44.42;102339.56;4930127;28;103531;-39
2021/03/28 10:28:02;;;;;;;5.60;1.33;;;14.50;92.50;;;13.19;44.66;102340.34;4981338;28;102692;-39
2021/03/28 10:30:48;;;;;;;3.13;0.90;;;14.50;92.60;;;13.09;45.31;102348.88;4980467;28;103444;-39
2021/03/28 10:33:22;;;;;;;5.68;1.02;;;14.40;92.80;;;12.86;44.63;102342.69;4980636;28;102706;-42
2021/03/28 10:36:21;;;;;;;4.00;0.90;;;14.20;91.60;;;12.77;45.86;102341.94;4979184;28;102871;-39
2021/03/28 10:39:12;;;;;;;5.57;0.98;;;14.10;92.70;;;12.77;44.08;102341.94;4949505;28;103635;-39
2021/03/28 10:42:04;;;;;;;3.83;1.10;;;14.10;91.20;;;12.74;44.56;102350.53;4980670;28;104307;-39
2021/03/28 10:44:50;;;;;;;5.63;1.40;;;14.00;90.90;;;12.82;45.46;102344.09;4980174;28;104678;-39
2021/03/28 10:47:50;;;;;;;3.08;1.00;;;14.10;92.60;;;13.00;45.91;102338.22;4980450;28;103437;-40
2021/03/28 10:50:38;;;;;;;4.03;1.40;;;14.10;93.20;;;13.15;45.20;102340.91;4979913;28;103299;-40
2021/03/28 10:53:28;;;;;;;4.28;1.48;;;14.30;92.40;;;13.27;45.34;102344.88;4963108;28;103502;-41
2021/03/28 10:56:25;;;;;;;4.57;0.90;;;14.40;91.80;;;13.43;43.86;102334.72;4980222;28;102882;-40
2021/03/28 10:59:21;;;;;;;3.97;1.20;;;14.60;90.60;;;13.42;44.70;102330.25;4962738;28;104346;-40
2021/03/28 11:02:17;;;;;;;2.78;0.82;;;14.70;91.30;;;13.48;43.91;102329.50;4982909;28;103672;-39
2021/03/28 11:05:03;;;;;;;4.55;1.42;;;14.70;89.50;;;13.52;42.21;102339.88;4983389;28;102528;-39
2021/03/28 11:07:53;;;;;;;2.88;1.40;;;14.80;88.00;;;13.61;45.27;102328.78;4965077;28;102590;-39
2021/03/28 11:10:40;;;;;;;4.93;1.60;;;14.80;91.10;;;13.60;43.70;102341.66;4983483;28;102449;-39
2021/03/28 11:13:23;;;;;;;5.93;1.30;;;14.90;88.60;;;13.63;44.92;102340.41;4966441;28;102422;-39
2021/03/28 11:16:15;;;;;;;3.38;1.30;;;14.90;90.60;;;13.56;44.73;102336.75;4965967;28;104416;-39
2021/03/28 11:19:22;;;;;;;4.82;1.17;;;14.80;90.20;;;13.66;45.17;102332.66;4966062;28;104011;-40
2021/03/28 11:22:14;;;;;;;5.78;1.15;;;14.90;90.40;;;13.82;44.81;102330.69;4982828;28;102510;-39
2021/03/28 11:24:58;;;;;;;3.80;1.15;;;15.00;91.20;;;13.97;44.59;102327.84;4983036;28;102347;-40
2021/03/28 11:27:49;;;;;;;4.60;1.30;;;15.10;91.50;;;14.04;43.83;102322.41;4983710;28;102307;-40
2021/03/28 11:30:36;;;;;;;6.22;1.70;;;15.20;89.80;;;14.09;44.19;102322.66;4983105;28;104269;-39
2021/03/28 11:33:21;;;;;;;3.35;1.42;;;15.30;89.90;;;13.94;43.22;102318.13;4982562;28;102513;-40
2021/03/28 11:36:01;;;;;;;7.68;2.22;;;15.30;85.80;;;13.98;43.61;102331.44;4983578;28;102411;-39
2021/03/28 11:38:34;;;;;;;5.65;1.30;;;15.20;88.10;;;14.18;43.50;102334.31;4965478;28;102436;-39
2021/03/28 11:41:12;;;;;;;5.50;1.40;;;15.30;88.10;;;14.30;44.70;102330.00;4982396;28;102656;-39
2021/03/28 11:43:45;;;;;;;5.50;1.17;;;15.50;90.40;;;14.16;42.73;102333.69;4964614;28;103586;-39
2021/03/28 11:46:35;;;;;;;6.47;1.40;;;15.40;85.10;;;14.20;43.04;102326.75;4983150;28;102597;-40